createdAt,value
2023-02-22T12:09:12.665Z,18.20
2023-02-22T12:10:14.137Z,18.77
2023-02-22T12:11:12.286Z,19.19
2023-02-22T12:12:12.044Z,19.45
2023-02-22T12:13:12.098Z,19.60
2023-02-22T12:14:12.022Z,20.12
2023-02-22T12:15:12.148Z,20.41
2023-02-22T12:16:12.531Z,20.10
2023-02-22T12:17:12.119Z,19.79
2023-02-22T12:18:12.088Z,19.63
2023-02-22T12:19:12.100Z,19.43
2023-02-22T12:20:12.108Z,18.95
2023-02-22T12:21:12.578Z,18.85
2023-02-22T12:22:12.069Z,18.88
2023-02-22T12:23:12.260Z,18.90
2023-02-22T12:24:12.073Z,19.48
2023-02-22T12:25:12.167Z,20.41
2023-02-22T12:26:12.249Z,21.34
2023-02-22T12:27:12.090Z,21.77
2023-02-22T12:28:23.681Z,21.83
2023-02-22T12:29:12.229Z,22.02
2023-02-22T12:30:12.406Z,22.47
2023-02-22T12:31:12.887Z,22.62
2023-02-22T12:32:12.417Z,22.71
2023-02-22T12:33:12.572Z,22.98
2023-02-22T12:34:15.396Z,22.90
2023-02-22T12:35:12.221Z,23.00
2023-02-22T12:36:12.634Z,22.96
2023-02-22T12:37:12.269Z,22.61
2023-02-22T12:38:12.273Z,22.23
2023-02-22T12:39:12.234Z,21.78
2023-02-22T12:40:12.264Z,21.11
2023-02-22T12:41:12.250Z,20.71
2023-02-22T12:42:14.568Z,20.39
2023-02-22T12:43:12.264Z,20.29
2023-02-22T12:44:12.390Z,20.29
2023-02-22T12:45:12.205Z,20.08
2023-02-22T12:46:12.263Z,19.84
2023-02-22T12:47:12.429Z,19.48
2023-02-22T12:48:12.276Z,18.83
2023-02-22T12:49:12.331Z,18.25
2023-02-22T12:50:14.913Z,17.72
2023-02-22T12:51:16.289Z,17.13
2023-02-22T12:52:21.353Z,16.85
2023-02-22T12:53:12.366Z,16.62
2023-02-22T12:54:13.296Z,16.22
2023-02-22T12:55:12.473Z,16.04
2023-02-22T12:56:12.583Z,15.95
2023-02-22T12:57:12.581Z,16.04
2023-02-22T12:58:13.926Z,15.97
2023-02-22T12:59:12.489Z,16.08
2023-02-22T13:00:12.427Z,16.19
2023-02-22T13:01:12.937Z,16.49
2023-02-22T13:02:12.919Z,16.97
2023-02-22T13:03:12.758Z,17.36
2023-02-22T13:04:20.452Z,17.41
2023-02-22T13:05:13.111Z,17.54
2023-02-22T13:06:12.449Z,17.77
2023-02-22T13:07:13.017Z,17.96
2023-02-22T13:08:15.267Z,18.16
2023-02-22T13:09:12.684Z,18.23
2023-02-22T13:10:12.518Z,18.11
2023-02-22T13:11:13.347Z,18.01
2023-02-22T13:12:13.038Z,17.88
2023-02-22T13:13:12.630Z,17.63
2023-02-22T13:14:12.504Z,17.52
2023-02-22T13:15:12.488Z,17.37
2023-02-22T13:16:12.469Z,17.06
2023-02-22T13:17:13.089Z,16.68
2023-02-22T13:18:12.462Z,16.44
2023-02-22T13:19:13.742Z,16.13
2023-02-22T13:20:12.598Z,15.81
2023-02-22T13:21:12.527Z,15.52
2023-02-22T13:22:13.284Z,15.25
2023-02-22T13:23:12.757Z,15.10
2023-02-22T13:24:13.326Z,15.06
2023-02-22T13:25:12.473Z,15.02
2023-02-22T13:26:12.896Z,14.90
2023-02-22T13:27:18.791Z,14.82
2023-02-22T13:28:12.807Z,14.69
2023-02-22T13:29:14.621Z,14.65
2023-02-22T13:30:12.785Z,14.51
2023-02-22T13:31:13.192Z,14.48
2023-02-22T13:32:13.643Z,14.41
2023-02-22T13:33:12.563Z,14.39
2023-02-22T13:34:12.547Z,14.41
2023-02-22T13:35:12.706Z,14.40
2023-02-22T13:36:12.948Z,14.35
2023-02-22T13:37:12.648Z,14.31
2023-02-22T13:38:12.781Z,14.24
2023-02-22T13:39:15.006Z,14.23
2023-02-22T13:40:16.903Z,14.25
2023-02-22T13:41:12.917Z,14.29
2023-02-22T13:42:12.768Z,14.30
2023-02-22T13:43:12.789Z,14.33
2023-02-22T13:44:15.338Z,14.36
2023-02-22T13:45:16.022Z,14.37
2023-02-22T13:46:12.831Z,14.38
2023-02-22T13:47:13.390Z,14.35
2023-02-22T13:48:12.902Z,14.33
2023-02-22T13:49:12.893Z,14.33
2023-02-22T13:50:13.248Z,14.33
2023-02-22T13:51:12.644Z,14.34
2023-02-22T13:52:13.950Z,14.34
2023-02-22T13:53:15.926Z,14.32
2023-02-22T13:54:12.703Z,14.26
2023-02-22T13:55:12.756Z,14.29
2023-02-22T13:56:12.944Z,14.31
2023-02-22T13:57:15.358Z,14.29
2023-02-22T13:58:12.933Z,14.24
2023-02-22T13:59:12.700Z,14.23
2023-02-22T14:00:12.800Z,14.20
2023-02-22T14:01:12.583Z,14.19
2023-02-22T14:02:12.645Z,14.19
2023-02-22T14:03:12.699Z,14.18
2023-02-22T14:04:12.680Z,14.17
2023-02-22T14:05:12.683Z,14.12
2023-02-22T14:06:12.681Z,14.02
2023-02-22T14:07:12.723Z,13.95
2023-02-22T14:08:12.724Z,13.94
2023-02-22T14:09:12.695Z,13.96
2023-02-22T14:10:12.656Z,13.98
2023-02-22T14:11:12.652Z,14.01
2023-02-22T14:12:12.679Z,14.01
2023-02-22T14:13:12.670Z,13.98
2023-02-22T14:14:12.696Z,14.00
2023-02-22T14:15:28.819Z,14.01
2023-02-22T14:16:12.652Z,14.00
2023-02-22T14:17:12.647Z,14.00
2023-02-22T14:18:13.059Z,13.97
2023-02-22T14:19:12.796Z,13.86
2023-02-22T14:20:13.010Z,13.86
2023-02-22T14:21:13.010Z,13.87
2023-02-22T14:22:12.910Z,13.83
2023-02-22T14:23:12.772Z,13.80
2023-02-22T14:24:13.014Z,13.79
2023-02-22T14:25:20.397Z,13.79
2023-02-22T14:26:13.711Z,13.79
2023-02-22T14:27:15.774Z,13.79
2023-02-22T14:28:13.078Z,13.78
2023-02-22T14:29:13.001Z,13.75
2023-02-22T14:30:12.953Z,13.71
2023-02-22T14:31:25.763Z,13.68
2023-02-22T14:32:13.893Z,13.68
2023-02-22T14:33:12.970Z,13.65
2023-02-22T14:34:13.551Z,13.61
2023-02-22T14:35:25.636Z,13.56
2023-02-22T14:36:13.053Z,13.53
2023-02-22T14:37:13.787Z,13.55
2023-02-22T14:38:13.094Z,13.52
2023-02-22T14:39:15.005Z,13.52
2023-02-22T14:40:13.286Z,13.55
2023-02-22T14:41:13.368Z,13.56
2023-02-22T14:42:13.389Z,13.58
2023-02-22T14:43:12.831Z,13.60
2023-02-22T14:44:13.187Z,13.60
2023-02-22T14:45:13.155Z,13.61
2023-02-22T14:46:13.929Z,13.60
2023-02-22T14:47:12.947Z,13.59
2023-02-22T14:48:14.949Z,13.59
2023-02-22T14:49:13.049Z,13.61
2023-02-22T14:50:13.585Z,13.61
2023-02-22T14:51:21.508Z,13.59
2023-02-22T14:52:13.628Z,13.59
2023-02-22T14:53:13.762Z,13.58
2023-02-22T14:54:13.210Z,13.53
2023-02-22T14:55:13.336Z,13.52
2023-02-22T14:56:13.189Z,13.52
2023-02-22T14:57:15.500Z,13.51
2023-02-22T14:58:13.241Z,13.49
2023-02-22T14:59:13.315Z,13.49
2023-02-22T15:00:14.371Z,13.48
2023-02-22T15:01:14.040Z,13.45
2023-02-22T15:02:13.585Z,13.46
2023-02-22T15:03:18.232Z,13.45
2023-02-22T15:04:14.298Z,13.45
2023-02-22T15:05:13.343Z,13.36
2023-02-22T15:06:17.560Z,13.29
2023-02-22T15:07:15.260Z,13.29
2023-02-22T15:08:16.411Z,13.26
